sensor_id;sensor_type;location;lat;lon;timestamp;temperature;humidity
35111;DHT22;21290;50.158;8.658;2023-04-03T00:02:23;4.60;99.90
35111;DHT22;21290;50.158;8.658;2023-04-03T00:04:50;4.70;99.90
35111;DHT22;21290;50.158;8.658;2023-04-03T00:07:16;4.60;99.90
35111;DHT22;21290;50.158;8.658;2023-04-03T00:09:43;4.70;99.90
35111;DHT22;21290;50.158;8.658;2023-04-03T00:12:09;4.70;99.90
35111;DHT22;21290;50.158;8.658;2023-04-03T00:14:37;4.70;99.90
35111;DHT22;21290;50.158;8.658;2023-04-03T00:17:03;4.70;99.90
35111;DHT22;21290;50.158;8.658;2023-04-03T00:19:30;4.80;99.90
35111;DHT22;21290;50.158;8.658;2023-04-03T00:21:57;4.80;99.90
35111;DHT22;21290;50.158;8.658;2023-04-03T00:24:23;4.80;99.90
35111;DHT22;21290;50.158;8.658;2023-04-03T00:26:50;4.80;99.90
35111;DHT22;21290;50.158;8.658;2023-04-03T00:29:17;4.80;99.90
35111;DHT22;21290;50.158;8.658;2023-04-03T00:31:43;4.80;99.90
35111;DHT22;21290;50.158;8.658;2023-04-03T00:34:10;4.90;99.90
35111;DHT22;21290;50.158;8.658;2023-04-03T00:36:37;4.90;99.90
35111;DHT22;21290;50.158;8.658;2023-04-03T00:39:03;4.90;99.90
35111;DHT22;21290;50.158;8.658;2023-04-03T00:41:30;4.90;99.90
35111;DHT22;21290;50.158;8.658;2023-04-03T00:43:58;4.90;99.90
35111;DHT22;21290;50.158;8.658;2023-04-03T00:46:24;4.90;99.90
35111;DHT22;21290;50.158;8.658;2023-04-03T00:48:51;5.00;99.90
35111;DHT22;21290;50.158;8.658;2023-04-03T00:51:23;5.00;99.90
35111;DHT22;21290;50.158;8.658;2023-04-03T00:53:55;5.00;99.90
35111;DHT22;21290;50.158;8.658;2023-04-03T00:56:25;5.00;99.90
35111;DHT22;21290;50.158;8.658;2023-04-03T00:59:04;5.00;99.90
35111;DHT22;21290;50.158;8.658;2023-04-03T01:01:32;5.00;99.90
35111;DHT22;21290;50.158;8.658;2023-04-03T01:04:00;5.00;99.90
35111;DHT22;21290;50.158;8.658;2023-04-03T01:06:29;5.00;99.90
35111;DHT22;21290;50.158;8.658;2023-04-03T01:08:59;5.00;99.90
35111;DHT22;21290;50.158;8.658;2023-04-03T01:11:26;5.00;99.90
35111;DHT22;21290;50.158;8.658;2023-04-03T01:13:53;5.00;99.90
35111;DHT22;21290;50.158;8.658;2023-04-03T01:16:19;5.00;99.90
35111;DHT22;21290;50.158;8.658;2023-04-03T01:18:46;5.00;99.90
35111;DHT22;21290;50.158;8.658;2023-04-03T01:24:42;5.00;99.90
35111;DHT22;21290;50.158;8.658;2023-04-03T01:27:10;5.00;99.90
35111;DHT22;21290;50.158;8.658;2023-04-03T01:29:39;4.90;99.90
35111;DHT22;21290;50.158;8.658;2023-04-03T01:32:06;4.90;99.90
35111;DHT22;21290;50.158;8.658;2023-04-03T01:34:33;4.90;99.90
35111;DHT22;21290;50.158;8.658;2023-04-03T01:36:59;4.90;99.90
35111;DHT22;21290;50.158;8.658;2023-04-03T01:39:26;4.90;99.90
35111;DHT22;21290;50.158;8.658;2023-04-03T01:41:53;4.90;99.90
35111;DHT22;21290;50.158;8.658;2023-04-03T01:44:20;4.90;99.90
35111;DHT22;21290;50.158;8.658;2023-04-03T01:46:46;4.90;99.90
35111;DHT22;21290;50.158;8.658;2023-04-03T01:49:13;4.90;99.90
35111;DHT22;21290;50.158;8.658;2023-04-03T01:51:40;4.90;99.90
35111;DHT22;21290;50.158;8.658;2023-04-03T01:54:06;4.90;99.90
35111;DHT22;21290;50.158;8.658;2023-04-03T01:56:33;4.90;99.90
35111;DHT22;21290;50.158;8.658;2023-04-03T01:59:00;4.90;99.90
35111;DHT22;21290;50.158;8.658;2023-04-03T02:01:26;4.90;99.90
35111;DHT22;21290;50.158;8.658;2023-04-03T02:03:53;4.90;99.90
35111;DHT22;21290;50.158;8.658;2023-04-03T02:06:19;4.90;99.90
35111;DHT22;21290;50.158;8.658;2023-04-03T02:08:46;4.90;99.90
35111;DHT22;21290;50.158;8.658;2023-04-03T02:11:13;4.90;99.90
35111;DHT22;21290;50.158;8.658;2023-04-03T02:13:39;4.90;99.90
35111;DHT22;21290;50.158;8.658;2023-04-03T02:16:08;4.90;99.90
35111;DHT22;21290;50.158;8.658;2023-04-03T02:18:36;4.90;99.90
35111;DHT22;21290;50.158;8.658;2023-04-03T02:21:03;4.90;99.90
35111;DHT22;21290;50.158;8.658;2023-04-03T02:23:29;4.90;99.90
35111;DHT22;21290;50.158;8.658;2023-04-03T02:26:16;4.80;99.90
35111;DHT22;21290;50.158;8.658;2023-04-03T02:28:43;4.80;99.90
35111;DHT22;21290;50.158;8.658;2023-04-03T02:31:10;4.80;99.90
35111;DHT22;21290;50.158;8.658;2023-04-03T02:33:37;4.80;99.90
35111;DHT22;21290;50.158;8.658;2023-04-03T02:36:05;4.80;99.90
35111;DHT22;21290;50.158;8.658;2023-04-03T02:38:32;4.80;99.90
35111;DHT22;21290;50.158;8.658;2023-04-03T02:41:01;4.80;99.90
35111;DHT22;21290;50.158;8.658;2023-04-03T02:43:27;4.80;99.90
35111;DHT22;21290;50.158;8.658;2023-04-03T02:45:54;4.80;99.90
35111;DHT22;21290;50.158;8.658;2023-04-03T02:48:22;4.80;99.90
35111;DHT22;21290;50.158;8.658;2023-04-03T02:50:49;4.80;99.90
35111;DHT22;21290;50.158;8.658;2023-04-03T02:53:15;4.70;99.90
35111;DHT22;21290;50.158;8.658;2023-04-03T02:55:42;4.80;99.90
35111;DHT22;21290;50.158;8.658;2023-04-03T02:58:09;4.70;99.90
35111;DHT22;21290;50.158;8.658;2023-04-03T03:00:36;4.70;99.90
35111;DHT22;21290;50.158;8.658;2023-04-03T03:03:03;4.70;99.90
35111;DHT22;21290;50.158;8.658;2023-04-03T03:05:30;4.70;99.90
35111;DHT22;21290;50.158;8.658;2023-04-03T03:07:57;4.70;99.90
35111;DHT22;21290;50.158;8.658;2023-04-03T03:10:24;4.70;99.90
35111;DHT22;21290;50.158;8.658;2023-04-03T03:12:51;4.70;99.90
35111;DHT22;21290;50.158;8.658;2023-04-03T03:15:17;4.60;99.90
35111;DHT22;21290;50.158;8.658;2023-04-03T03:17:45;4.60;99.90
35111;DHT22;21290;50.158;8.658;2023-04-03T03:20:12;4.50;99.90
35111;DHT22;21290;50.158;8.658;2023-04-03T03:22:41;4.50;99.90
35111;DHT22;21290;50.158;8.658;2023-04-03T03:25:08;4.50;99.90
35111;DHT22;21290;50.158;8.658;2023-04-03T03:27:35;4.50;99.90
35111;DHT22;21290;50.158;8.658;2023-04-03T03:30:01;4.40;99.90
35111;DHT22;21290;50.158;8.658;2023-04-03T03:32:28;4.40;99.90
35111;DHT22;21290;50.158;8.658;2023-04-03T03:34:55;4.40;99.90
35111;DHT22;21290;50.158;8.658;2023-04-03T03:37:21;4.30;99.90
35111;DHT22;21290;50.158;8.658;2023-04-03T03:39:48;4.30;99.90
35111;DHT22;21290;50.158;8.658;2023-04-03T03:42:14;4.20;99.90
35111;DHT22;21290;50.158;8.658;2023-04-03T03:44:41;4.20;99.90
35111;DHT22;21290;50.158;8.658;2023-04-03T03:47:08;4.10;99.90
35111;DHT22;21290;50.158;8.658;2023-04-03T03:49:37;4.00;99.90
35111;DHT22;21290;50.158;8.658;2023-04-03T03:52:03;4.00;99.90
35111;DHT22;21290;50.158;8.658;2023-04-03T03:54:30;4.00;99.90
35111;DHT22;21290;50.158;8.658;2023-04-03T03:56:56;4.00;99.90
35111;DHT22;21290;50.158;8.658;2023-04-03T03:59:23;4.00;99.90
35111;DHT22;21290;50.158;8.658;2023-04-03T04:01:50;4.00;99.90
35111;DHT22;21290;50.158;8.658;2023-04-03T04:04:16;3.90;99.90
35111;DHT22;21290;50.158;8.658;2023-04-03T04:06:43;3.90;99.90
35111;DHT22;21290;50.158;8.658;2023-04-03T04:09:10;3.90;99.90
35111;DHT22;21290;50.158;8.658;2023-04-03T04:11:36;3.90;99.90
35111;DHT22;21290;50.158;8.658;2023-04-03T04:14:03;3.80;99.90
35111;DHT22;21290;50.158;8.658;2023-04-03T04:16:29;3.80;99.90
35111;DHT22;21290;50.158;8.658;2023-04-03T04:18:56;3.80;99.90
35111;DHT22;21290;50.158;8.658;2023-04-03T04:21:23;3.70;99.90
35111;DHT22;21290;50.158;8.658;2023-04-03T04:23:49;3.70;99.90
35111;DHT22;21290;50.158;8.658;2023-04-03T04:26:16;3.60;99.90
35111;DHT22;21290;50.158;8.658;2023-04-03T04:28:42;3.60;99.90
35111;DHT22;21290;50.158;8.658;2023-04-03T04:31:09;3.50;99.90
35111;DHT22;21290;50.158;8.658;2023-04-03T04:33:36;3.50;99.90
35111;DHT22;21290;50.158;8.658;2023-04-03T04:36:02;3.40;99.90
35111;DHT22;21290;50.158;8.658;2023-04-03T04:38:29;3.40;99.90
35111;DHT22;21290;50.158;8.658;2023-04-03T04:40:56;3.40;99.90
35111;DHT22;21290;50.158;8.658;2023-04-03T04:43:22;3.30;99.90
35111;DHT22;21290;50.158;8.658;2023-04-03T04:45:57;3.30;99.90
35111;DHT22;21290;50.158;8.658;2023-04-03T04:48:26;3.30;99.90
35111;DHT22;21290;50.158;8.658;2023-04-03T04:50:52;3.30;99.90
35111;DHT22;21290;50.158;8.658;2023-04-03T04:53:19;3.40;99.90
35111;DHT22;21290;50.158;8.658;2023-04-03T04:55:46;3.50;99.90
35111;DHT22;21290;50.158;8.658;2023-04-03T04:58:12;3.50;99.90
35111;DHT22;21290;50.158;8.658;2023-04-03T05:00:39;3.50;99.90
35111;DHT22;21290;50.158;8.658;2023-04-03T05:03:05;3.50;99.90
35111;DHT22;21290;50.158;8.658;2023-04-03T05:05:32;3.50;99.90
35111;DHT22;21290;50.158;8.658;2023-04-03T05:07:58;3.40;99.90
35111;DHT22;21290;50.158;8.658;2023-04-03T05:10:25;3.40;99.90
35111;DHT22;21290;50.158;8.658;2023-04-03T05:12:51;3.40;99.90
35111;DHT22;21290;50.158;8.658;2023-04-03T05:15:18;3.40;99.90
35111;DHT22;21290;50.158;8.658;2023-04-03T05:17:45;3.30;99.90
35111;DHT22;21290;50.158;8.658;2023-04-03T05:20:12;3.30;99.90
35111;DHT22;21290;50.158;8.658;2023-04-03T05:22:39;3.20;99.90
35111;DHT22;21290;50.158;8.658;2023-04-03T05:25:06;3.20;99.90
35111;DHT22;21290;50.158;8.658;2023-04-03T05:27:33;3.10;99.90
35111;DHT22;21290;50.158;8.658;2023-04-03T05:29:59;3.10;99.90
35111;DHT22;21290;50.158;8.658;2023-04-03T05:32:26;3.10;99.90
35111;DHT22;21290;50.158;8.658;2023-04-03T05:34:54;3.10;99.90
35111;DHT22;21290;50.158;8.658;2023-04-03T05:37:20;3.20;99.90
35111;DHT22;21290;50.158;8.658;2023-04-03T05:39:47;3.20;99.90
35111;DHT22;21290;50.158;8.658;2023-04-03T05:42:14;3.30;99.90
35111;DHT22;21290;50.158;8.658;2023-04-03T05:44:42;3.40;99.90
35111;DHT22;21290;50.158;8.658;2023-04-03T05:47:09;3.50;99.90
35111;DHT22;21290;50.158;8.658;2023-04-03T05:49:35;3.60;99.90
35111;DHT22;21290;50.158;8.658;2023-04-03T05:52:02;3.90;99.90
35111;DHT22;21290;50.158;8.658;2023-04-03T05:54:30;4.00;99.90
35111;DHT22;21290;50.158;8.658;2023-04-03T05:56:57;4.20;99.90
35111;DHT22;21290;50.158;8.658;2023-04-03T05:59:24;4.20;99.90
35111;DHT22;21290;50.158;8.658;2023-04-03T06:01:50;4.30;99.90
35111;DHT22;21290;50.158;8.658;2023-04-03T06:04:17;4.40;99.90
35111;DHT22;21290;50.158;8.658;2023-04-03T06:09:19;4.40;99.90
35111;DHT22;21290;50.158;8.658;2023-04-03T06:11:46;4.40;99.90
35111;DHT22;21290;50.158;8.658;2023-04-03T06:14:12;4.50;99.90
35111;DHT22;21290;50.158;8.658;2023-04-03T06:16:39;4.60;99.90
35111;DHT22;21290;50.158;8.658;2023-04-03T06:19:07;4.90;99.90
35111;DHT22;21290;50.158;8.658;2023-04-03T06:21:34;5.10;99.90
35111;DHT22;21290;50.158;8.658;2023-04-03T06:24:05;5.20;99.90
35111;DHT22;21290;50.158;8.658;2023-04-03T06:26:33;5.20;99.90
35111;DHT22;21290;50.158;8.658;2023-04-03T06:28:59;5.60;99.90
35111;DHT22;21290;50.158;8.658;2023-04-03T06:31:26;5.60;99.90
35111;DHT22;21290;50.158;8.658;2023-04-03T06:33:53;5.60;99.90
35111;DHT22;21290;50.158;8.658;2023-04-03T06:36:20;5.70;99.90
35111;DHT22;21290;50.158;8.658;2023-04-03T06:38:47;5.80;99.90
35111;DHT22;21290;50.158;8.658;2023-04-03T06:41:15;6.00;99.90
35111;DHT22;21290;50.158;8.658;2023-04-03T06:43:44;6.00;99.90
35111;DHT22;21290;50.158;8.658;2023-04-03T06:46:17;6.20;99.90
35111;DHT22;21290;50.158;8.658;2023-04-03T06:48:44;6.40;99.90
35111;DHT22;21290;50.158;8.658;2023-04-03T06:53:50;6.60;99.90
35111;DHT22;21290;50.158;8.658;2023-04-03T06:56:18;6.70;99.90
35111;DHT22;21290;50.158;8.658;2023-04-03T06:58:45;7.00;99.90
35111;DHT22;21290;50.158;8.658;2023-04-03T07:01:14;7.10;99.90
35111;DHT22;21290;50.158;8.658;2023-04-03T07:03:41;7.30;99.90
35111;DHT22;21290;50.158;8.658;2023-04-03T07:06:11;7.50;99.90
35111;DHT22;21290;50.158;8.658;2023-04-03T07:08:39;7.70;99.90
35111;DHT22;21290;50.158;8.658;2023-04-03T07:11:05;7.80;99.90
35111;DHT22;21290;50.158;8.658;2023-04-03T07:13:32;8.00;99.90
35111;DHT22;21290;50.158;8.658;2023-04-03T07:15:59;8.10;99.90
35111;DHT22;21290;50.158;8.658;2023-04-03T07:18:25;8.40;99.90
35111;DHT22;21290;50.158;8.658;2023-04-03T07:20:52;8.40;99.90
35111;DHT22;21290;50.158;8.658;2023-04-03T07:23:19;8.50;99.90
35111;DHT22;21290;50.158;8.658;2023-04-03T07:25:47;8.70;99.90
35111;DHT22;21290;50.158;8.658;2023-04-03T07:28:14;8.80;99.90
35111;DHT22;21290;50.158;8.658;2023-04-03T07:30:46;8.90;99.90
35111;DHT22;21290;50.158;8.658;2023-04-03T07:33:18;8.90;99.90
35111;DHT22;21290;50.158;8.658;2023-04-03T07:35:45;8.90;99.90
35111;DHT22;21290;50.158;8.658;2023-04-03T07:38:12;9.00;99.90
35111;DHT22;21290;50.158;8.658;2023-04-03T07:40:39;9.20;99.90
35111;DHT22;21290;50.158;8.658;2023-04-03T07:43:06;9.30;99.90
35111;DHT22;21290;50.158;8.658;2023-04-03T07:45:34;9.60;99.90
35111;DHT22;21290;50.158;8.658;2023-04-03T07:48:02;9.80;99.90
35111;DHT22;21290;50.158;8.658;2023-04-03T07:50:29;10.00;99.90
35111;DHT22;21290;50.158;8.658;2023-04-03T07:52:58;10.20;99.90
35111;DHT22;21290;50.158;8.658;2023-04-03T07:55:25;10.50;99.90
35111;DHT22;21290;50.158;8.658;2023-04-03T07:57:52;10.90;99.40
35111;DHT22;21290;50.158;8.658;2023-04-03T08:00:18;11.20;98.50
35111;DHT22;21290;50.158;8.658;2023-04-03T08:02:46;11.50;97.30
35111;DHT22;21290;50.158;8.658;2023-04-03T08:05:18;11.90;97.00
35111;DHT22;21290;50.158;8.658;2023-04-03T08:07:46;12.20;96.00
35111;DHT22;21290;50.158;8.658;2023-04-03T08:10:13;12.30;95.10
35111;DHT22;21290;50.158;8.658;2023-04-03T08:12:41;12.50;94.30
35111;DHT22;21290;50.158;8.658;2023-04-03T08:15:08;12.90;93.60
35111;DHT22;21290;50.158;8.658;2023-04-03T08:17:35;12.90;92.80
35111;DHT22;21290;50.158;8.658;2023-04-03T08:20:04;12.80;92.00
35111;DHT22;21290;50.158;8.658;2023-04-03T08:22:31;12.40;92.40
35111;DHT22;21290;50.158;8.658;2023-04-03T08:24:57;12.30;92.50
35111;DHT22;21290;50.158;8.658;2023-04-03T08:27:25;13.20;91.20
35111;DHT22;21290;50.158;8.658;2023-04-03T08:29:54;13.90;89.70
35111;DHT22;21290;50.158;8.658;2023-04-03T08:32:20;14.80;85.10
35111;DHT22;21290;50.158;8.658;2023-04-03T08:34:47;15.90;79.60
35111;DHT22;21290;50.158;8.658;2023-04-03T08:37:14;17.10;75.90
35111;DHT22;21290;50.158;8.658;2023-04-03T08:39:42;17.30;70.70
35111;DHT22;21290;50.158;8.658;2023-04-03T08:42:40;16.80;70.30
35111;DHT22;21290;50.158;8.658;2023-04-03T08:45:15;17.70;67.30
35111;DHT22;21290;50.158;8.658;2023-04-03T08:48:12;18.20;65.20
35111;DHT22;21290;50.158;8.658;2023-04-03T08:50:42;18.50;64.30
35111;DHT22;21290;50.158;8.658;2023-04-03T08:53:32;19.70;62.20
35111;DHT22;21290;50.158;8.658;2023-04-03T08:56:04;21.20;59.10
35111;DHT22;21290;50.158;8.658;2023-04-03T08:58:41;21.90;56.80
35111;DHT22;21290;50.158;8.658;2023-04-03T09:01:15;22.50;54.40
35111;DHT22;21290;50.158;8.658;2023-04-03T09:03:43;22.30;52.40
35111;DHT22;21290;50.158;8.658;2023-04-03T09:06:28;23.30;52.20
35111;DHT22;21290;50.158;8.658;2023-04-03T09:14:46;24.20;47.40
35111;DHT22;21290;50.158;8.658;2023-04-03T09:17:37;25.00;47.60
35111;DHT22;21290;50.158;8.658;2023-04-03T09:22:44;26.70;45.60
35111;DHT22;21290;50.158;8.658;2023-04-03T09:25:23;26.70;45.00
35111;DHT22;21290;50.158;8.658;2023-04-03T09:27:52;27.00;44.30
35111;DHT22;21290;50.158;8.658;2023-04-03T09:30:21;26.70;43.40
35111;DHT22;21290;50.158;8.658;2023-04-03T09:32:51;26.70;42.80
35111;DHT22;21290;50.158;8.658;2023-04-03T09:35:30;26.90;43.80
35111;DHT22;21290;50.158;8.658;2023-04-03T09:40:42;27.30;41.70
35111;DHT22;21290;50.158;8.658;2023-04-03T09:45:42;25.50;42.30
35111;DHT22;21290;50.158;8.658;2023-04-03T09:53:31;24.70;43.00
35111;DHT22;21290;50.158;8.658;2023-04-03T09:55:58;24.30;42.90
35111;DHT22;21290;50.158;8.658;2023-04-03T09:58:34;24.30;43.10
35111;DHT22;21290;50.158;8.658;2023-04-03T10:01:30;24.90;42.30
35111;DHT22;21290;50.158;8.658;2023-04-03T10:04:18;24.60;41.10
35111;DHT22;21290;50.158;8.658;2023-04-03T10:06:48;24.70;42.30
35111;DHT22;21290;50.158;8.658;2023-04-03T10:09:31;24.40;40.20
35111;DHT22;21290;50.158;8.658;2023-04-03T10:12:05;24.90;40.90
35111;DHT22;21290;50.158;8.658;2023-04-03T10:14:37;26.30;41.30
35111;DHT22;21290;50.158;8.658;2023-04-03T10:17:18;26.40;40.40
35111;DHT22;21290;50.158;8.658;2023-04-03T10:19:59;26.60;40.10
35111;DHT22;21290;50.158;8.658;2023-04-03T10:22:59;26.70;40.30
35111;DHT22;21290;50.158;8.658;2023-04-03T10:25:42;26.10;40.10
35111;DHT22;21290;50.158;8.658;2023-04-03T10:28:20;26.00;40.20
35111;DHT22;21290;50.158;8.658;2023-04-03T10:34:10;25.70;39.70
35111;DHT22;21290;50.158;8.658;2023-04-03T10:37:01;26.40;40.30
35111;DHT22;21290;50.158;8.658;2023-04-03T10:39:48;27.10;39.80
35111;DHT22;21290;50.158;8.658;2023-04-03T10:42:35;26.50;38.80
35111;DHT22;21290;50.158;8.658;2023-04-03T10:50:51;26.70;39.70
35111;DHT22;21290;50.158;8.658;2023-04-03T10:53:39;27.30;39.20
35111;DHT22;21290;50.158;8.658;2023-04-03T10:56:35;26.70;38.80
35111;DHT22;21290;50.158;8.658;2023-04-03T10:59:29;26.60;38.10
35111;DHT22;21290;50.158;8.658;2023-04-03T11:02:11;26.60;38.50
35111;DHT22;21290;50.158;8.658;2023-04-03T11:04:43;26.50;38.30
35111;DHT22;21290;50.158;8.658;2023-04-03T11:07:18;26.00;37.40
35111;DHT22;21290;50.158;8.658;2023-04-03T11:09:51;26.20;38.30
35111;DHT22;21290;50.158;8.658;2023-04-03T11:12:33;26.40;39.00
35111;DHT22;21290;50.158;8.658;2023-04-03T11:15:03;25.60;37.00
35111;DHT22;21290;50.158;8.658;2023-04-03T11:17:38;26.10;37.50
35111;DHT22;21290;50.158;8.658;2023-04-03T11:20:20;26.80;38.30
35111;DHT22;21290;50.158;8.658;2023-04-03T11:22:57;26.70;37.00
35111;DHT22;21290;50.158;8.658;2023-04-03T11:25:25;25.80;37.70
35111;DHT22;21290;50.158;8.658;2023-04-03T11:28:01;26.00;38.00
35111;DHT22;21290;50.158;8.658;2023-04-03T11:30:47;26.10;37.90
35111;DHT22;21290;50.158;8.658;2023-04-03T11:36:18;25.30;37.60
35111;DHT22;21290;50.158;8.658;2023-04-03T11:38:53;25.10;37.40
35111;DHT22;21290;50.158;8.658;2023-04-03T11:41:30;25.50;37.50
35111;DHT22;21290;50.158;8.658;2023-04-03T11:44:06;25.80;36.90
35111;DHT22;21290;50.158;8.658;2023-04-03T11:46:55;25.80;38.20
35111;DHT22;21290;50.158;8.658;2023-04-03T11:49:59;25.70;37.80
35111;DHT22;21290;50.158;8.658;2023-04-03T12:16:28;15.30;46.60
35111;DHT22;21290;50.158;8.658;2023-04-03T12:26:51;14.40;50.00
35111;DHT22;21290;50.158;8.658;2023-04-03T12:29:34;14.10;51.90
35111;DHT22;21290;50.158;8.658;2023-04-03T12:35:19;13.50;50.90
35111;DHT22;21290;50.158;8.658;2023-04-03T12:40:22;13.90;51.00
35111;DHT22;21290;50.158;8.658;2023-04-03T12:43:08;13.80;51.70
35111;DHT22;21290;50.158;8.658;2023-04-03T12:45:49;13.80;53.70
35111;DHT22;21290;50.158;8.658;2023-04-03T12:48:22;13.70;52.30
35111;DHT22;21290;50.158;8.658;2023-04-03T12:50:52;13.70;51.10
35111;DHT22;21290;50.158;8.658;2023-04-03T12:53:24;13.60;51.00
35111;DHT22;21290;50.158;8.658;2023-04-03T12:55:56;13.40;50.40
35111;DHT22;21290;50.158;8.658;2023-04-03T12:58:24;13.50;52.30
35111;DHT22;21290;50.158;8.658;2023-04-03T13:01:18;13.30;53.00
35111;DHT22;21290;50.158;8.658;2023-04-03T13:03:53;13.20;52.60
35111;DHT22;21290;50.158;8.658;2023-04-03T13:06:30;13.00;52.40
35111;DHT22;21290;50.158;8.658;2023-04-03T13:08:59;13.00;53.90
35111;DHT22;21290;50.158;8.658;2023-04-03T13:11:34;13.00;53.60
35111;DHT22;21290;50.158;8.658;2023-04-03T13:14:15;13.00;53.00
35111;DHT22;21290;50.158;8.658;2023-04-03T13:16:42;12.90;53.00
35111;DHT22;21290;50.158;8.658;2023-04-03T13:19:18;12.80;53.60
35111;DHT22;21290;50.158;8.658;2023-04-03T13:21:45;12.80;53.00
35111;DHT22;21290;50.158;8.658;2023-04-03T13:24:12;12.70;52.90
35111;DHT22;21290;50.158;8.658;2023-04-03T13:26:41;12.70;54.30
35111;DHT22;21290;50.158;8.658;2023-04-03T13:29:23;12.70;54.90
35111;DHT22;21290;50.158;8.658;2023-04-03T13:31:58;12.70;55.10
35111;DHT22;21290;50.158;8.658;2023-04-03T13:34:28;12.80;54.00
35111;DHT22;21290;50.158;8.658;2023-04-03T13:36:58;12.90;53.70
35111;DHT22;21290;50.158;8.658;2023-04-03T13:39:28;12.70;53.70
35111;DHT22;21290;50.158;8.658;2023-04-03T13:41:59;12.70;55.10
35111;DHT22;21290;50.158;8.658;2023-04-03T13:44:33;12.60;53.80
35111;DHT22;21290;50.158;8.658;2023-04-03T13:47:21;12.50;54.80
35111;DHT22;21290;50.158;8.658;2023-04-03T13:50:02;12.50;54.90
35111;DHT22;21290;50.158;8.658;2023-04-03T13:52:39;12.40;54.40
35111;DHT22;21290;50.158;8.658;2023-04-03T13:55:29;12.40;54.00
35111;DHT22;21290;50.158;8.658;2023-04-03T13:57:57;12.50;55.10
35111;DHT22;21290;50.158;8.658;2023-04-03T14:02:57;12.30;53.70
35111;DHT22;21290;50.158;8.658;2023-04-03T14:05:24;12.20;52.90
35111;DHT22;21290;50.158;8.658;2023-04-03T14:07:54;12.10;54.40
35111;DHT22;21290;50.158;8.658;2023-04-03T14:10:22;12.00;54.00
35111;DHT22;21290;50.158;8.658;2023-04-03T14:12:49;12.00;53.80
35111;DHT22;21290;50.158;8.658;2023-04-03T14:15:23;12.00;53.70
35111;DHT22;21290;50.158;8.658;2023-04-03T14:17:51;12.00;54.90
35111;DHT22;21290;50.158;8.658;2023-04-03T14:20:20;11.90;54.10
35111;DHT22;21290;50.158;8.658;2023-04-03T14:22:48;11.70;55.00
35111;DHT22;21290;50.158;8.658;2023-04-03T14:25:15;11.70;55.20
35111;DHT22;21290;50.158;8.658;2023-04-03T14:27:45;11.80;54.30
35111;DHT22;21290;50.158;8.658;2023-04-03T14:30:30;11.80;54.30
35111;DHT22;21290;50.158;8.658;2023-04-03T14:32:58;11.60;54.40
35111;DHT22;21290;50.158;8.658;2023-04-03T14:35:26;11.60;54.90
35111;DHT22;21290;50.158;8.658;2023-04-03T14:37:53;11.50;55.40
35111;DHT22;21290;50.158;8.658;2023-04-03T14:40:26;11.50;55.70
35111;DHT22;21290;50.158;8.658;2023-04-03T14:42:53;11.50;55.40
35111;DHT22;21290;50.158;8.658;2023-04-03T14:45:22;11.40;54.70
35111;DHT22;21290;50.158;8.658;2023-04-03T14:47:51;11.30;55.10
35111;DHT22;21290;50.158;8.658;2023-04-03T14:50:27;11.20;55.70
35111;DHT22;21290;50.158;8.658;2023-04-03T14:52:58;11.20;55.10
35111;DHT22;21290;50.158;8.658;2023-04-03T14:55:25;11.20;55.60
35111;DHT22;21290;50.158;8.658;2023-04-03T14:57:53;11.20;56.30
35111;DHT22;21290;50.158;8.658;2023-04-03T15:00:21;11.00;53.70
35111;DHT22;21290;50.158;8.658;2023-04-03T15:02:49;10.80;54.70
35111;DHT22;21290;50.158;8.658;2023-04-03T15:05:16;10.70;56.90
35111;DHT22;21290;50.158;8.658;2023-04-03T15:07:49;10.70;56.50
35111;DHT22;21290;50.158;8.658;2023-04-03T15:10:20;10.70;55.90
35111;DHT22;21290;50.158;8.658;2023-04-03T15:12:49;10.70;56.50
35111;DHT22;21290;50.158;8.658;2023-04-03T15:15:18;10.70;55.40
35111;DHT22;21290;50.158;8.658;2023-04-03T15:17:47;10.60;54.10
35111;DHT22;21290;50.158;8.658;2023-04-03T15:20:16;10.50;55.80
35111;DHT22;21290;50.158;8.658;2023-04-03T15:22:44;10.40;54.10
35111;DHT22;21290;50.158;8.658;2023-04-03T15:25:10;10.20;54.80
35111;DHT22;21290;50.158;8.658;2023-04-03T15:27:38;10.20;57.00
35111;DHT22;21290;50.158;8.658;2023-04-03T15:30:06;10.20;57.80
35111;DHT22;21290;50.158;8.658;2023-04-03T15:32:33;10.20;57.40
35111;DHT22;21290;50.158;8.658;2023-04-03T15:35:01;10.10;57.30
35111;DHT22;21290;50.158;8.658;2023-04-03T15:37:28;10.10;56.90
35111;DHT22;21290;50.158;8.658;2023-04-03T15:39:55;10.00;57.20
35111;DHT22;21290;50.158;8.658;2023-04-03T15:42:21;10.00;57.20
35111;DHT22;21290;50.158;8.658;2023-04-03T15:44:48;9.90;56.30
35111;DHT22;21290;50.158;8.658;2023-04-03T15:47:14;9.70;56.10
35111;DHT22;21290;50.158;8.658;2023-04-03T15:49:41;9.70;57.20
35111;DHT22;21290;50.158;8.658;2023-04-03T15:52:08;9.70;57.40
35111;DHT22;21290;50.158;8.658;2023-04-03T15:54:35;9.70;57.50
35111;DHT22;21290;50.158;8.658;2023-04-03T15:57:01;9.70;58.70
35111;DHT22;21290;50.158;8.658;2023-04-03T15:59:28;9.70;58.40
35111;DHT22;21290;50.158;8.658;2023-04-03T16:01:57;9.60;57.40
35111;DHT22;21290;50.158;8.658;2023-04-03T16:04:25;9.50;57.70
35111;DHT22;21290;50.158;8.658;2023-04-03T16:06:51;9.30;56.60
35111;DHT22;21290;50.158;8.658;2023-04-03T16:09:18;9.30;56.40
35111;DHT22;21290;50.158;8.658;2023-04-03T16:11:45;9.20;57.40
35111;DHT22;21290;50.158;8.658;2023-04-03T16:14:11;9.10;58.50
35111;DHT22;21290;50.158;8.658;2023-04-03T16:16:38;9.10;57.90
35111;DHT22;21290;50.158;8.658;2023-04-03T16:19:05;9.00;58.10
35111;DHT22;21290;50.158;8.658;2023-04-03T16:21:33;9.00;57.60
35111;DHT22;21290;50.158;8.658;2023-04-03T16:24:00;8.90;57.80
35111;DHT22;21290;50.158;8.658;2023-04-03T16:26:27;8.90;58.10
35111;DHT22;21290;50.158;8.658;2023-04-03T16:28:54;8.70;56.70
35111;DHT22;21290;50.158;8.658;2023-04-03T16:31:21;8.70;57.90
35111;DHT22;21290;50.158;8.658;2023-04-03T16:33:49;8.60;57.20
35111;DHT22;21290;50.158;8.658;2023-04-03T16:36:16;8.40;58.00
35111;DHT22;21290;50.158;8.658;2023-04-03T16:38:42;8.40;59.20
35111;DHT22;21290;50.158;8.658;2023-04-03T16:41:09;8.30;60.00
35111;DHT22;21290;50.158;8.658;2023-04-03T16:43:36;8.30;59.50
35111;DHT22;21290;50.158;8.658;2023-04-03T16:46:03;8.20;59.70
35111;DHT22;21290;50.158;8.658;2023-04-03T16:48:30;8.10;59.10
35111;DHT22;21290;50.158;8.658;2023-04-03T16:50:57;8.00;59.30
35111;DHT22;21290;50.158;8.658;2023-04-03T16:53:25;7.90;59.00
35111;DHT22;21290;50.158;8.658;2023-04-03T16:55:52;7.90;60.60
35111;DHT22;21290;50.158;8.658;2023-04-03T16:58:19;7.80;60.90
35111;DHT22;21290;50.158;8.658;2023-04-03T17:00:49;7.80;61.40
35111;DHT22;21290;50.158;8.658;2023-04-03T17:03:16;7.70;61.10
35111;DHT22;21290;50.158;8.658;2023-04-03T17:05:47;7.60;62.60
35111;DHT22;21290;50.158;8.658;2023-04-03T17:08:14;7.60;62.70
35111;DHT22;21290;50.158;8.658;2023-04-03T17:10:40;7.50;62.60
35111;DHT22;21290;50.158;8.658;2023-04-03T17:13:07;7.50;63.30
35111;DHT22;21290;50.158;8.658;2023-04-03T17:15:34;7.40;64.10
35111;DHT22;21290;50.158;8.658;2023-04-03T17:18:01;7.30;64.30